Time;durP1;ratioP1;P1;durP2;ratioP2;P2;SDS_P1;SDS_P2;PMS_P1;PMS_P2;Temp;Humidity;BMP_temperature;BMP_pressure;BME280_temperature;BME280_humidity;BME280_pressure;Samples;Min_cycle;Max_cycle;Signal;HPM_P1;HPM_P2
2023/04/20 00:00:01;;;;;;;16.20;3.30;;;;;;;11.67;77.99;98651.86;78128;1300;3048963;-60
2023/04/20 00:02:28;;;;;;;16.50;3.10;;;;;;;11.51;78.77;98648.04;79341;1295;3012969;-62
2023/04/20 00:04:54;;;;;;;14.30;2.80;;;;;;;11.38;79.37;98649.73;79311;1295;3013879;-62
2023/04/20 00:07:23;;;;;;;12.60;2.00;;;;;;;11.34;79.43;98646.52;78025;1296;3027221;-61
2023/04/20 00:09:50;;;;;;;11.60;2.00;;;;;;;11.83;78.55;98635.35;79388;1298;3013781;-62
2023/04/20 00:12:17;;;;;;;16.70;2.80;;;;;;;12.43;77.05;98631.30;79432;1294;3011952;-59
2023/04/20 00:14:45;;;;;;;23.00;3.00;;;;;;;12.49;75.91;98631.00;78214;1298;3049641;-60
2023/04/20 00:17:11;;;;;;;17.70;2.90;;;;;;;12.24;76.43;98633.91;79417;1298;3013483;-60
2023/04/20 00:19:38;;;;;;;15.20;3.30;;;;;;;12.10;77.15;98624.29;79354;1298;3012622;-61
2023/04/20 00:22:06;;;;;;;15.50;3.10;;;;;;;11.91;77.66;98620.37;78230;1298;3025085;-60
2023/04/20 00:24:32;;;;;;;21.90;3.00;;;;;;;11.65;78.44;98616.97;79425;1298;3013106;-61
2023/04/20 00:26:59;;;;;;;15.10;2.90;;;;;;;11.55;78.98;98619.85;79348;1298;3011982;-62
2023/04/20 00:29:27;;;;;;;11.60;2.30;;;;;;;11.47;79.48;98619.77;78135;1295;3027174;-58
2023/04/20 00:31:53;;;;;;;7.10;1.50;;;;;;;12.01;78.53;98620.63;79405;1295;3013689;-61
2023/04/20 00:34:20;;;;;;;15.30;2.70;;;;;;;12.61;76.48;98624.77;79402;1296;3013683;-60
2023/04/20 00:36:48;;;;;;;21.50;3.40;;;;;;;12.49;75.91;98626.77;78202;1294;3029214;-62
2023/04/20 00:39:15;;;;;;;13.60;3.10;;;;;;;12.32;76.42;98631.48;79435;1298;3018429;-63
2023/04/20 00:41:41;;;;;;;15.20;3.40;;;;;;;12.13;77.38;98628.45;79365;1298;3011689;-59
2023/04/20 00:44:12;;;;;;;22.80;3.30;;;;;;;12.00;77.71;98625.59;78180;1298;3028651;-59
2023/04/20 00:46:40;;;;;;;12.40;3.20;;;;;;;11.85;78.40;98624.63;79310;1298;3012939;-62
2023/04/20 00:49:09;;;;;;;16.50;2.90;;;;;;;11.74;78.44;98624.13;78647;1301;3013798;-61
2023/04/20 00:51:36;;;;;;;6.10;3.10;;;;;;;11.61;79.22;98627.59;79227;1303;3013549;-60
2023/04/20 00:54:07;;;;;;;9.10;2.10;;;;;;;11.98;78.63;98623.11;78690;1295;3011674;-60
2023/04/20 00:56:33;;;;;;;19.00;3.80;;;;;;;12.48;77.39;98613.66;79372;1295;3013749;-63
2023/04/20 00:59:00;;;;;;;12.20;2.70;;;;;;;12.59;76.82;98609.60;79365;1298;3012884;-59
2023/04/20 01:01:28;;;;;;;13.80;2.80;;;;;;;12.50;76.77;98617.05;78118;1295;3028138;-59
2023/04/20 01:03:55;;;;;;;16.40;3.00;;;;;;;12.25;77.21;98607.62;79206;1296;3013134;-62
2023/04/20 01:06:21;;;;;;;19.80;3.60;;;;;;;12.03;78.08;98603.42;79380;1298;3011847;-58
2023/04/20 01:08:50;;;;;;;19.10;4.00;;;;;;;11.84;79.19;98611.92;78059;1298;3027333;-59
2023/04/20 01:11:17;;;;;;;15.20;3.90;;;;;;;11.65;80.17;98614.79;79281;1298;3013049;-59
2023/04/20 01:13:44;;;;;;;7.90;2.40;;;;;;;11.50;81.13;98606.04;79240;1299;3012949;-60
2023/04/20 01:16:12;;;;;;;19.20;3.60;;;;;;;12.01;80.06;98606.92;77963;1300;3049263;-59
2023/04/20 01:18:56;;;;;;;18.80;3.60;;;;;;;12.45;78.22;98612.02;79257;1294;3013035;-61
2023/04/20 01:21:24;;;;;;;14.50;3.60;;;;;;;12.37;77.85;98599.79;78114;1300;3053019;-61
2023/04/20 01:23:51;;;;;;;22.20;4.60;;;;;;;12.30;78.55;98588.83;79330;1299;3012734;-61
2023/04/20 01:26:20;;;;;;;15.70;4.10;;;;;;;12.18;78.94;98578.01;79323;1295;3012991;-60
2023/04/20 01:28:51;;;;;;;14.30;3.80;;;;;;;12.03;79.22;98572.90;78105;1301;3055799;-59
2023/04/20 01:31:17;;;;;;;25.10;5.00;;;;;;;11.88;79.91;98559.18;79309;1298;3012773;-60
2023/04/20 01:33:45;;;;;;;17.50;4.50;;;;;;;11.74;80.40;98552.70;79270;1294;3011887;-63
2023/04/20 01:36:13;;;;;;;11.60;2.50;;;;;;;11.69;81.01;98550.66;78010;1300;3026114;-60
2023/04/20 01:38:40;;;;;;;21.20;3.90;;;;;;;12.18;80.18;98547.27;79327;1298;3013081;-62
2023/04/20 01:41:07;;;;;;;20.20;3.70;;;;;;;12.69;78.20;98545.36;79387;1299;3011601;-59
2023/04/20 01:43:35;;;;;;;24.60;5.00;;;;;;;12.83;77.79;98550.38;78086;1300;3028966;-60
2023/04/20 01:46:02;;;;;;;20.20;5.60;;;;;;;12.66;77.95;98552.66;79281;1300;3012872;-60
2023/04/20 01:48:29;;;;;;;30.70;5.60;;;;;;;12.42;78.65;98548.81;79278;1296;3011822;-61
2023/04/20 01:50:57;;;;;;;24.60;5.50;;;;;;;12.28;79.19;98545.60;78271;1300;3027992;-60
2023/04/20 01:53:24;;;;;;;25.20;5.70;;;;;;;12.16;79.38;98544.83;79310;1298;3013124;-64
2023/04/20 01:55:51;;;;;;;33.70;5.90;;;;;;;12.02;80.17;98540.68;79386;1299;3013142;-60
2023/04/20 01:58:18;;;;;;;22.80;3.60;;;;;;;11.97;80.56;98538.45;78105;1299;3026099;-65
2023/04/20 02:00:45;;;;;;;23.40;5.30;;;;;;;12.43;79.35;98548.02;79252;1295;3012912;-64
2023/04/20 02:03:11;;;;;;;36.10;5.60;;;;;;;12.90;77.78;98543.44;79256;1296;3012006;-62
2023/04/20 02:05:39;;;;;;;19.10;5.60;;;;;;;12.93;77.49;98543.88;78075;1300;3028560;-58
2023/04/20 02:08:06;;;;;;;23.80;5.80;;;;;;;12.76;77.94;98542.47;79198;1300;3013598;-60
2023/04/20 02:10:33;;;;;;;33.00;6.70;;;;;;;12.55;78.91;98543.55;79288;1299;3011598;-58
2023/04/20 02:13:01;;;;;;;24.20;5.70;;;;;;;12.33;79.70;98548.71;77996;1300;3028233;-62
2023/04/20 02:15:27;;;;;;;24.00;6.60;;;;;;;12.10;80.81;98562.83;79321;1295;3013718;-58
2023/04/20 02:17:54;;;;;;;33.00;5.80;;;;;;;11.93;81.72;98575.08;79389;1300;3011697;-59
2023/04/20 02:20:23;;;;;;;16.00;3.70;;;;;;;11.80;82.51;98574.32;78060;1299;3028588;-60
2023/04/20 02:22:50;;;;;;;26.30;4.10;;;;;;;12.23;81.75;98568.28;79352;1300;3014971;-58
2023/04/20 02:25:16;;;;;;;28.40;5.10;;;;;;;12.71;79.84;98555.52;79276;1295;3012984;-62
2023/04/20 02:27:44;;;;;;;41.20;5.70;;;;;;;12.76;79.34;98543.21;78088;1299;3056607;-60
2023/04/20 02:30:12;;;;;;;27.40;5.00;;;;;;;12.71;79.50;98528.34;79402;1295;3014700;-62
2023/04/20 02:32:39;;;;;;;29.70;6.10;;;;;;;12.63;79.66;98524.66;79270;1294;3011699;-61
2023/04/20 02:35:07;;;;;;;28.30;6.20;;;;;;;12.43;79.69;98526.77;78063;1299;3052564;-59
2023/04/20 02:37:34;;;;;;;21.80;6.00;;;;;;;12.30;80.26;98518.06;79382;1299;3014424;-60
2023/04/20 02:40:01;;;;;;;29.60;7.00;;;;;;;12.12;80.58;98504.77;79309;1294;3013060;-60
2023/04/20 02:42:29;;;;;;;19.30;4.50;;;;;;;11.99;81.59;98491.09;78034;1300;3056761;-58
2023/04/20 02:44:57;;;;;;;27.20;5.50;;;;;;;12.48;80.77;98493.86;79365;1294;3013022;-60
2023/04/20 02:47:24;;;;;;;37.20;6.20;;;;;;;12.94;78.77;98499.33;79260;1294;3011624;-62
2023/04/20 02:49:52;;;;;;;24.60;6.30;;;;;;;13.02;78.39;98503.55;78063;1298;3052383;-62
2023/04/20 02:52:19;;;;;;;27.10;7.20;;;;;;;12.86;78.69;98501.45;79241;1300;3012914;-60
2023/04/20 02:54:46;;;;;;;30.60;6.70;;;;;;;12.67;79.37;98506.23;79230;1301;3014071;-62
2023/04/20 02:57:14;;;;;;;30.90;6.50;;;;;;;12.52;79.74;98511.64;78089;1299;3028205;-61
2023/04/20 02:59:42;;;;;;;22.40;6.60;;;;;;;12.37;80.14;98514.80;79317;1301;3013214;-63
2023/04/20 03:02:19;;;;;;;14.70;4.20;;;;;;;12.17;81.32;98522.09;78089;1300;3050565;-60
2023/04/20 03:04:46;;;;;;;21.80;5.00;;;;;;;12.42;81.35;98521.41;79309;1300;3012923;-59
2023/04/20 03:07:20;;;;;;;29.30;6.30;;;;;;;12.86;79.76;98519.66;78082;1299;3069636;-60
2023/04/20 03:09:47;;;;;;;28.40;7.10;;;;;;;12.90;79.32;98512.84;79389;1296;3013673;-60
2023/04/20 03:12:14;;;;;;;26.70;6.20;;;;;;;12.72;79.74;98516.82;79341;1295;3013214;-58
2023/04/20 03:15:21;;;;;;;28.40;7.10;;;;;;;12.34;80.84;98523.70;77609;1307;3053907;-62
2023/04/20 03:18:12;;;;;;;26.10;6.20;;;;;;;12.02;82.76;98519.59;77454;1306;3050699;-61
2023/04/20 03:20:39;;;;;;;38.10;7.20;;;;;;;11.82;84.14;98517.88;79331;1298;3018803;-63
2023/04/20 03:23:06;;;;;;;16.20;4.40;;;;;;;11.80;84.79;98514.56;79244;1301;3013364;-62
2023/04/20 03:25:34;;;;;;;19.10;4.70;;;;;;;12.20;83.51;98506.73;78317;1296;3025989;-64
2023/04/20 03:28:15;;;;;;;22.80;5.20;;;;;;;12.71;81.33;98501.66;78257;1298;3056684;-62
2023/04/20 03:30:41;;;;;;;23.50;5.70;;;;;;;12.73;81.07;98499.52;79512;1295;3015484;-62
2023/04/20 03:33:14;;;;;;;22.90;6.30;;;;;;;12.58;81.22;98500.44;78154;1300;3050040;-62
2023/04/20 03:35:41;;;;;;;27.40;6.20;;;;;;;12.43;82.23;98501.16;79126;1300;3013499;-60
2023/04/20 03:38:09;;;;;;;21.60;6.70;;;;;;;12.24;82.45;98502.21;79314;1295;3012947;-62
2023/04/20 03:40:38;;;;;;;16.90;6.30;;;;;;;12.01;83.70;98504.05;78059;1301;3052342;-62
2023/04/20 03:43:05;;;;;;;13.50;3.20;;;;;;;11.94;84.08;98506.35;79279;1295;3013165;-59
2023/04/20 03:45:31;;;;;;;23.60;5.00;;;;;;;12.38;83.42;98505.60;79248;1298;3012881;-62
2023/04/20 03:47:59;;;;;;;15.60;5.70;;;;;;;12.74;81.32;98504.20;78028;1300;3026004;-61
2023/04/20 03:50:26;;;;;;;19.00;5.90;;;;;;;12.70;81.31;98510.33;79284;1301;3013484;-60
2023/04/20 03:52:53;;;;;;;18.30;6.00;;;;;;;12.52;82.02;98514.41;79265;1300;3011559;-60
2023/04/20 03:55:21;;;;;;;14.80;5.90;;;;;;;12.44;82.69;98514.28;78050;1299;3026248;-62
2023/04/20 03:57:53;;;;;;;22.60;6.20;;;;;;;12.20;83.23;98515.38;79270;1298;3011831;-59
2023/04/20 04:00:22;;;;;;;14.10;5.90;;;;;;;11.99;84.45;98514.81;78129;1298;3049019;-62
2023/04/20 04:02:48;;;;;;;12.20;3.80;;;;;;;11.88;84.83;98516.66;79258;1300;3013264;-62
2023/04/20 04:05:23;;;;;;;14.00;4.00;;;;;;;12.29;84.21;98518.96;78081;1300;3055237;-62
2023/04/20 04:07:50;;;;;;;15.00;3.90;;;;;;;12.70;82.35;98514.73;79397;1299;3013431;-59
2023/04/20 04:10:20;;;;;;;16.00;4.90;;;;;;;12.77;82.06;98514.84;79375;1299;3011321;-59
2023/04/20 04:12:49;;;;;;;12.30;5.20;;;;;;;12.57;82.30;98515.48;77944;1300;3055963;-64
2023/04/20 04:15:18;;;;;;;14.30;5.20;;;;;;;12.39;83.12;98518.73;79396;1298;3013521;-56
2023/04/20 04:17:54;;;;;;;8.90;5.00;;;;;;;12.22;83.90;98520.13;78306;1298;3050603;-59
2023/04/20 04:20:22;;;;;;;14.50;6.30;;;;;;;11.96;84.81;98519.70;79323;1299;3012797;-57
2023/04/20 04:22:50;;;;;;;8.30;3.00;;;;;;;11.77;86.06;98520.73;79371;1295;3012251;-57
2023/04/20 04:25:32;;;;;;;14.40;3.70;;;;;;;12.25;85.47;98518.09;78058;1306;3051662;-59
2023/04/20 04:27:59;;;;;;;10.50;4.70;;;;;;;12.73;83.32;98516.73;79372;1295;3014059;-58
2023/04/20 04:30:26;;;;;;;18.30;5.60;;;;;;;12.74;82.67;98516.66;79373;1298;3011490;-57
2023/04/20 04:32:54;;;;;;;12.30;5.10;;;;;;;12.62;82.98;98517.33;78199;1298;3050119;-56
2023/04/20 04:35:21;;;;;;;12.10;4.80;;;;;;;12.35;83.64;98519.70;79173;1303;3012076;-58
2023/04/20 04:37:48;;;;;;;14.70;6.70;;;;;;;12.13;84.41;98516.77;79116;1302;3011734;-55
2023/04/20 04:40:17;;;;;;;16.00;5.50;;;;;;;11.97;85.17;98519.11;78012;1300;3051792;-59
2023/04/20 04:42:44;;;;;;;5.80;2.50;;;;;;;11.87;85.86;98520.26;79382;1296;3013118;-57
2023/04/20 04:45:12;;;;;;;8.90;3.30;;;;;;;12.35;84.83;98516.90;79332;1297;3011892;-58
2023/04/20 04:47:41;;;;;;;12.80;4.40;;;;;;;12.72;82.53;98514.17;78038;1299;3049425;-58
2023/04/20 04:50:09;;;;;;;7.60;4.00;;;;;;;12.74;82.57;98514.21;79357;1311;3012999;-58
2023/04/20 04:52:36;;;;;;;12.60;4.40;;;;;;;12.64;82.78;98508.39;79226;1300;3013022;-58
2023/04/20 04:55:07;;;;;;;11.30;4.50;;;;;;;12.42;83.22;98504.44;77971;1302;3052122;-57
2023/04/20 04:57:35;;;;;;;14.20;5.10;;;;;;;12.17;84.12;98504.51;79273;1304;3013244;-59
2023/04/20 05:00:08;;;;;;;15.30;4.80;;;;;;;11.95;85.22;98506.34;78058;1300;3050492;-58
2023/04/20 05:02:35;;;;;;;11.10;2.60;;;;;;;11.85;85.92;98508.65;79286;1299;3011725;-62
2023/04/20 05:05:03;;;;;;;11.90;3.10;;;;;;;12.28;84.87;98513.28;78097;1299;3050420;-59
2023/04/20 05:07:30;;;;;;;7.30;3.10;;;;;;;12.71;82.83;98511.83;79393;1301;3013252;-61
2023/04/20 05:09:56;;;;;;;11.40;3.90;;;;;;;12.81;82.44;98518.19;79175;1301;3011641;-58
2023/04/20 05:12:24;;;;;;;12.30;4.80;;;;;;;12.64;82.39;98522.04;78111;1297;3051833;-58
2023/04/20 05:14:51;;;;;;;9.40;3.80;;;;;;;12.42;83.57;98520.61;79396;1296;3020873;-59
2023/04/20 05:17:18;;;;;;;14.10;4.70;;;;;;;12.26;84.07;98524.73;79456;1301;3011662;-59
2023/04/20 05:19:46;;;;;;;17.00;4.80;;;;;;;12.08;84.80;98524.79;78123;1299;3025530;-58
2023/04/20 05:22:12;;;;;;;12.30;3.10;;;;;;;11.94;85.42;98527.27;79442;1302;3013602;-61
2023/04/20 05:24:39;;;;;;;14.80;3.80;;;;;;;12.32;84.24;98523.81;79276;1300;3013420;-62
2023/04/20 05:27:08;;;;;;;15.60;4.30;;;;;;;12.67;82.51;98518.09;77999;1303;3028752;-59
2023/04/20 05:29:35;;;;;;;17.20;4.70;;;;;;;12.74;82.23;98517.57;79348;1300;3014343;-61
2023/04/20 05:32:01;;;;;;;18.60;5.20;;;;;;;12.59;82.79;98521.44;79263;1296;3012681;-62
2023/04/20 05:34:30;;;;;;;31.70;5.40;;;;;;;12.44;83.24;98515.48;78046;1300;3049216;-62
2023/04/20 05:36:57;;;;;;;15.50;4.90;;;;;;;12.21;83.84;98519.10;79251;1310;3013552;-62
2023/04/20 05:39:24;;;;;;;20.40;5.30;;;;;;;12.04;84.59;98520.88;79308;1300;3013509;-62
2023/04/20 05:41:52;;;;;;;17.20;3.40;;;;;;;11.92;85.43;98520.94;78093;1301;3051831;-62
2023/04/20 05:44:18;;;;;;;19.50;4.00;;;;;;;12.29;84.89;98524.59;79233;1301;3013490;-61
2023/04/20 05:46:45;;;;;;;17.20;4.40;;;;;;;12.66;82.62;98523.65;79202;1300;3011931;-62
2023/04/20 05:49:13;;;;;;;18.50;4.50;;;;;;;12.66;82.44;98524.88;78152;1308;3028122;-63
2023/04/20 05:51:40;;;;;;;19.30;4.20;;;;;;;12.54;82.91;98526.61;79325;1300;3013455;-62
2023/04/20 05:54:06;;;;;;;20.20;5.50;;;;;;;12.36;83.24;98533.48;79185;1301;3013457;-62
2023/04/20 05:56:35;;;;;;;20.20;4.80;;;;;;;12.18;84.06;98535.67;77857;1301;3052098;-63
2023/04/20 05:59:02;;;;;;;18.20;5.80;;;;;;;11.93;84.82;98536.29;79130;1308;3018783;-58
2023/04/20 06:01:28;;;;;;;13.30;3.40;;;;;;;11.74;85.96;98535.86;79513;1298;3011741;-62
2023/04/20 06:03:56;;;;;;;18.20;3.60;;;;;;;12.19;85.13;98536.83;78068;1300;3028586;-59
2023/04/20 06:06:23;;;;;;;21.30;4.00;;;;;;;12.62;83.17;98534.19;79304;1309;3012871;-61
2023/04/20 06:08:51;;;;;;;16.80;4.60;;;;;;;12.71;82.81;98533.40;79224;1301;3013452;-59
2023/04/20 06:11:19;;;;;;;14.20;3.80;;;;;;;12.58;82.71;98535.73;78096;1296;3051096;-62
2023/04/20 06:13:45;;;;;;;15.10;4.70;;;;;;;12.33;83.17;98541.17;79370;1299;3013828;-59
2023/04/20 06:16:12;;;;;;;22.90;4.80;;;;;;;12.04;84.23;98544.95;79218;1295;3011880;-63
2023/04/20 06:18:40;;;;;;;21.70;5.30;;;;;;;11.85;85.31;98543.95;78130;1298;3050660;-61
2023/04/20 06:21:10;;;;;;;15.40;3.30;;;;;;;11.73;86.17;98540.19;79366;1309;3013291;-60
2023/04/20 06:23:39;;;;;;;17.10;3.20;;;;;;;12.22;84.86;98542.91;78784;1300;3011923;-59
2023/04/20 06:26:07;;;;;;;13.10;4.20;;;;;;;12.62;83.25;98538.20;79315;1295;3013914;-64
2023/04/20 06:28:35;;;;;;;19.00;4.50;;;;;;;12.63;82.58;98533.02;79464;1298;3013316;-64
2023/04/20 06:31:05;;;;;;;17.50;4.60;;;;;;;12.45;82.87;98532.63;78028;1298;3049965;-64
2023/04/20 06:33:32;;;;;;;21.00;5.60;;;;;;;12.26;83.66;98539.23;79372;1296;3013753;-63
2023/04/20 06:35:59;;;;;;;29.10;6.00;;;;;;;12.03;84.63;98533.79;79211;1300;3013713;-60
2023/04/20 06:38:27;;;;;;;23.20;5.20;;;;;;;11.87;85.40;98535.94;78107;1300;3025930;-63
2023/04/20 06:40:53;;;;;;;15.40;3.40;;;;;;;11.76;86.08;98536.60;79657;1301;3013096;-60
2023/04/20 06:43:20;;;;;;;16.20;3.60;;;;;;;12.21;85.15;98532.78;79405;1300;3011648;-60
2023/04/20 06:45:48;;;;;;;13.70;3.80;;;;;;;12.64;82.79;98531.08;78152;1300;3026636;-61
2023/04/20 06:48:15;;;;;;;14.50;5.60;;;;;;;12.65;82.50;98532.30;79240;1305;3013046;-61
2023/04/20 06:50:41;;;;;;;20.70;5.00;;;;;;;12.46;82.81;98535.14;79399;1301;3011966;-60
2023/04/20 06:53:09;;;;;;;21.90;5.50;;;;;;;12.23;83.64;98541.09;78136;1298;3029130;-57
2023/04/20 06:55:35;;;;;;;29.80;6.30;;;;;;;12.04;84.51;98540.85;79234;1298;3021158;-60
2023/04/20 06:58:02;;;;;;;20.60;5.00;;;;;;;11.86;85.24;98536.48;79286;1296;3012913;-62
2023/04/20 07:00:30;;;;;;;8.70;3.10;;;;;;;11.78;85.83;98536.61;78267;1298;3026515;-62
2023/04/20 07:02:57;;;;;;;11.70;2.90;;;;;;;12.21;84.99;98533.99;79347;1301;3019030;-61
2023/04/20 07:05:24;;;;;;;15.90;3.80;;;;;;;12.74;82.69;98528.66;79401;1295;3013226;-60
2023/04/20 07:07:52;;;;;;;22.00;4.20;;;;;;;12.67;81.67;98528.81;78211;1300;3028881;-58
2023/04/20 07:10:18;;;;;;;19.30;4.20;;;;;;;12.47;82.15;98531.38;79226;1300;3013826;-59
2023/04/20 07:12:45;;;;;;;20.40;4.70;;;;;;;12.22;83.11;98530.49;79258;1299;3011856;-59
2023/04/20 07:15:13;;;;;;;12.80;3.60;;;;;;;12.04;84.02;98524.94;78082;1299;3028476;-61
2023/04/20 07:17:40;;;;;;;13.30;3.70;;;;;;;11.87;84.73;98523.48;79304;1294;3012993;-60
2023/04/20 07:20:08;;;;;;;9.10;2.00;;;;;;;11.73;85.41;98518.59;79283;1295;3011587;-59
2023/04/20 07:22:36;;;;;;;10.40;2.60;;;;;;;12.24;84.53;98519.05;78220;1299;3052209;-62
2023/04/20 07:25:05;;;;;;;9.40;2.80;;;;;;;12.84;83.03;98511.63;79343;1299;3013300;-57
2023/04/20 07:27:38;;;;;;;12.20;4.10;;;;;;;13.04;81.67;98507.11;78857;1295;3011829;-63
2023/04/20 07:30:05;;;;;;;;;;;;;;;12.93;81.24;98505.42;79266;1300;3012910;-61
2023/04/20 07:32:34;;;;;;;16.60;3.50;;;;;;;12.66;80.86;98501.41;78061;1299;3050275;-61
2023/04/20 07:35:02;;;;;;;19.30;6.80;;;;;;;12.44;81.68;98498.14;79283;1300;3011646;-61
2023/04/20 07:37:30;;;;;;;18.90;7.70;;;;;;;12.26;82.26;98494.36;79342;1298;3011785;-61
2023/04/20 07:39:58;;;;;;;11.80;3.50;;;;;;;12.16;83.16;98493.21;78108;1300;3053476;-61
2023/04/20 07:42:24;;;;;;;17.10;4.30;;;;;;;12.66;82.21;98488.39;79242;1301;3020709;-61
2023/04/20 07:44:51;;;;;;;12.50;4.30;;;;;;;13.24;80.09;98486.72;79318;1298;3012957;-64
2023/04/20 07:47:19;;;;;;;11.70;4.10;;;;;;;13.35;79.25;98489.52;78069;1298;3029083;-61
2023/04/20 07:49:45;;;;;;;14.20;4.70;;;;;;;13.29;79.29;98497.36;79258;1295;3012795;-59
2023/04/20 07:52:12;;;;;;;14.40;5.50;;;;;;;13.25;79.79;98505.48;79205;1299;3011605;-60
2023/04/20 07:54:40;;;;;;;13.80;4.70;;;;;;;12.98;80.20;98502.81;78019;1300;3028775;-61
2023/04/20 07:57:08;;;;;;;13.70;4.90;;;;;;;12.81;81.30;98503.95;79361;1301;3012861;-61
2023/04/20 07:59:35;;;;;;;10.60;2.60;;;;;;;12.73;82.72;98502.30;79226;1294;3011343;-61
2023/04/20 08:02:03;;;;;;;15.20;2.90;;;;;;;13.35;81.15;98502.83;78124;1299;3049497;-61
2023/04/20 08:04:30;;;;;;;13.00;3.70;;;;;;;13.93;78.79;98505.34;79228;1295;3021177;-61
2023/04/20 08:06:56;;;;;;;8.50;3.20;;;;;;;13.87;77.58;98501.30;79201;1294;3011681;-61
2023/04/20 08:09:25;;;;;;;11.80;3.60;;;;;;;13.72;78.11;98498.23;77996;1298;3025917;-62
2023/04/20 08:11:51;;;;;;;11.00;3.80;;;;;;;13.62;79.01;98506.50;79375;1298;3013452;-60
2023/04/20 08:14:18;;;;;;;12.40;3.40;;;;;;;13.57;79.08;98502.52;79281;1300;3011272;-61
2023/04/20 08:16:46;;;;;;;10.10;2.70;;;;;;;13.52;79.09;98503.83;77943;1300;3048618;-62
2023/04/20 08:19:13;;;;;;;8.70;2.20;;;;;;;13.36;78.99;98506.66;79242;1300;3013202;-63
2023/04/20 08:21:39;;;;;;;8.20;2.00;;;;;;;13.67;77.97;98506.42;79384;1300;3012241;-65
2023/04/20 08:24:08;;;;;;;4.90;2.20;;;;;;;14.02;76.77;98508.20;78073;1298;3026284;-62
2023/04/20 08:26:35;;;;;;;8.10;3.00;;;;;;;14.01;75.74;98504.80;79993;1294;3013427;-61
2023/04/20 08:29:28;;;;;;;10.50;2.10;;;;;;;13.85;77.01;98507.98;78040;1294;3056263;-62
2023/04/20 08:31:55;;;;;;;10.60;2.80;;;;;;;13.59;78.02;98517.15;79338;1298;3011574;-62
2023/04/20 08:34:22;;;;;;;8.70;3.10;;;;;;;13.21;79.20;98515.98;79220;1300;3011923;-61
2023/04/20 08:36:50;;;;;;;6.10;2.20;;;;;;;12.89;80.74;98515.55;78282;1298;3026660;-62
2023/04/20 08:39:20;;;;;;;9.20;2.90;;;;;;;12.73;81.91;98518.67;79323;1297;3012591;-63
2023/04/20 08:41:52;;;;;;;6.00;1.50;;;;;;;12.50;82.64;98520.64;78054;1296;3051132;-61
2023/04/20 08:44:19;;;;;;;5.80;1.60;;;;;;;13.16;80.96;98519.55;79506;1294;3011504;-61
2023/04/20 08:46:47;;;;;;;7.20;2.30;;;;;;;13.54;78.03;98519.72;78028;1300;3028588;-61
2023/04/20 08:49:14;;;;;;;14.50;2.40;;;;;;;13.33;78.24;98523.58;79409;1295;3012760;-60
2023/04/20 08:51:45;;;;;;;9.30;2.30;;;;;;;13.42;78.18;98519.34;79418;1293;3013846;-62
2023/04/20 08:54:13;;;;;;;8.50;1.90;;;;;;;13.17;78.47;98520.35;75981;1299;5244513;-59
2023/04/20 08:56:41;;;;;;;6.50;1.60;;;;;;;12.97;78.81;98520.90;79538;1298;3018543;-62
2023/04/20 08:59:12;;;;;;;5.30;1.90;;;;;;;12.82;79.56;98519.11;79602;1294;3012870;-60
2023/04/20 09:01:41;;;;;;;10.50;2.90;;;;;;;12.70;79.41;98518.93;78191;1298;3050122;-60
2023/04/20 09:04:25;;;;;;;9.60;1.70;;;;;;;12.46;80.57;98520.75;79464;1293;3019265;-61
2023/04/20 09:06:54;;;;;;;7.00;1.90;;;;;;;12.73;80.16;98524.84;78169;1300;3051919;-62
2023/04/20 09:09:22;;;;;;;7.50;2.20;;;;;;;12.93;79.32;98531.71;79506;1299;3013115;-62
2023/04/20 09:12:09;;;;;;;12.70;3.40;;;;;;;13.04;78.60;98535.39;78834;1306;3011797;-63
2023/04/20 09:14:42;;;;;;;10.10;2.50;;;;;;;12.90;79.12;98538.71;78300;1292;3052725;-64
2023/04/20 09:17:13;;;;;;;12.70;2.70;;;;;;;12.77;79.36;98538.87;79329;1299;3011740;-61
2023/04/20 09:19:43;;;;;;;9.80;2.60;;;;;;;12.48;80.66;98546.41;78162;1298;3048828;-62
2023/04/20 09:22:09;;;;;;;11.60;2.60;;;;;;;12.43;80.54;98550.86;79293;1298;3012950;-61
2023/04/20 09:24:37;;;;;;;9.50;2.30;;;;;;;12.24;81.66;98549.09;79283;1300;3011923;-61
2023/04/20 09:27:15;;;;;;;7.70;2.40;;;;;;;11.90;83.19;98551.65;78212;1300;3052697;-63
2023/04/20 09:29:43;;;;;;;11.40;2.50;;;;;;;12.40;82.15;98550.39;78318;1299;3069155;-61
2023/04/20 09:32:24;;;;;;;8.20;1.80;;;;;;;12.96;79.88;98544.70;79466;1295;3013965;-61
2023/04/20 09:34:52;;;;;;;7.90;2.00;;;;;;;12.72;79.44;98547.07;78285;1294;3050170;-61
2023/04/20 09:37:18;;;;;;;11.50;3.10;;;;;;;12.57;80.13;98547.61;79370;1293;3018471;-61
2023/04/20 09:39:45;;;;;;;9.30;2.30;;;;;;;12.38;80.70;98550.01;79360;1298;3011576;-61
2023/04/20 09:42:14;;;;;;;9.40;2.30;;;;;;;12.17;81.54;98550.50;78264;1297;3029106;-63
2023/04/20 09:44:42;;;;;;;9.50;2.70;;;;;;;12.06;82.25;98545.39;79381;1298;3012716;-62
2023/04/20 09:47:15;;;;;;;4.80;1.20;;;;;;;12.04;82.53;98542.61;79475;1294;3013554;-63
2023/04/20 09:49:43;;;;;;;;;;;;;;;12.55;80.67;98536.22;78027;1300;3050729;-66
2023/04/20 09:52:10;;;;;;;6.60;2.40;;;;;;;13.05;78.69;98534.94;79326;1300;3013608;-60
2023/04/20 09:54:37;;;;;;;9.50;2.20;;;;;;;13.25;77.57;98537.23;79574;1294;3013088;-61
2023/04/20 09:57:05;;;;;;;7.00;2.10;;;;;;;13.18;77.20;98533.98;78187;1299;3052809;-60
2023/04/20 09:59:32;;;;;;;5.30;1.90;;;;;;;12.91;77.01;98525.80;79575;1298;3012899;-61
2023/04/20 10:01:58;;;;;;;6.80;1.70;;;;;;;12.70;77.96;98527.20;79375;1298;3011931;-61
2023/04/20 10:04:26;;;;;;;4.30;1.30;;;;;;;12.55;78.41;98523.17;78339;1297;3026417;-63
2023/04/20 10:06:54;;;;;;;4.70;1.80;;;;;;;12.44;78.89;98521.99;79357;1296;3021078;-60
2023/04/20 10:09:22;;;;;;;3.80;1.30;;;;;;;12.32;79.50;98526.64;79335;1293;3013165;-61
2023/04/20 10:11:50;;;;;;;3.80;1.00;;;;;;;12.79;78.78;98523.80;78189;1297;3053506;-63
2023/04/20 10:14:17;;;;;;;5.80;1.30;;;;;;;13.41;76.74;98526.99;79860;1297;3021122;-61
2023/04/20 10:17:57;;;;;;;4.10;1.00;;;;;;;13.47;75.63;98531.67;79983;1300;3013371;-63
2023/04/20 10:20:25;;;;;;;7.20;1.50;;;;;;;13.45;75.46;98532.44;78867;1306;3013076;-63
2023/04/20 10:22:53;;;;;;;5.60;2.00;;;;;;;13.21;75.92;98530.98;78875;1305;3011675;-63
2023/04/20 10:25:23;;;;;;;5.10;1.50;;;;;;;13.11;76.65;98531.56;77701;1305;3052849;-60
2023/04/20 10:27:54;;;;;;;8.60;2.00;;;;;;;13.02;76.96;98534.66;79097;1304;3013161;-62
2023/04/20 10:30:22;;;;;;;4.10;1.30;;;;;;;12.88;77.70;98526.73;75290;1303;3048798;-63
2023/04/20 10:32:49;;;;;;;1.50;0.70;;;;;;;12.99;77.10;98523.03;78950;1301;3013886;-61
2023/04/20 10:35:16;;;;;;;4.50;1.40;;;;;;;13.33;75.56;98531.67;78938;1301;3011663;-61
2023/04/20 10:37:50;;;;;;;4.30;1.00;;;;;;;13.75;74.33;98537.41;80463;1300;3050164;-62
2023/04/20 10:40:25;;;;;;;3.20;1.40;;;;;;;13.97;73.57;98539.29;81721;1301;3011521;-61
2023/04/20 10:42:53;;;;;;;3.10;1.20;;;;;;;13.88;73.43;98542.05;80478;1300;3052865;-63
2023/04/20 10:45:20;;;;;;;4.80;1.50;;;;;;;13.69;73.17;98546.18;81755;1300;3013143;-62
2023/04/20 10:47:47;;;;;;;5.10;1.30;;;;;;;13.50;73.91;98547.83;81741;1300;3011187;-60
2023/04/20 10:50:15;;;;;;;2.80;1.10;;;;;;;13.39;74.51;98542.99;80455;1299;3048936;-63
2023/04/20 10:52:42;;;;;;;6.00;1.60;;;;;;;13.29;74.86;98545.60;81748;1300;3013381;-62
2023/04/20 10:55:22;;;;;;;3.30;1.60;;;;;;;13.32;74.79;98548.80;81722;1300;3011401;-63
2023/04/20 10:57:50;;;;;;;4.00;1.30;;;;;;;13.30;74.96;98557.11;80487;1300;3052211;-63
2023/04/20 11:00:19;;;;;;;2.50;1.20;;;;;;;13.26;75.00;98555.48;81789;1298;3012738;-62
2023/04/20 11:02:50;;;;;;;3.60;1.30;;;;;;;13.14;75.49;98563.05;81867;1298;3011413;-61
2023/04/20 11:05:19;;;;;;;3.40;0.60;;;;;;;13.16;75.70;98566.73;80549;1298;3048602;-62
2023/04/20 11:07:56;;;;;;;3.30;1.20;;;;;;;13.72;73.86;98562.82;81870;1298;3012555;-61
2023/04/20 11:10:35;;;;;;;5.20;0.70;;;;;;;14.22;71.36;98565.92;80583;1298;3052712;-62
2023/04/20 11:13:24;;;;;;;3.30;1.10;;;;;;;14.44;70.70;98563.27;80644;1298;3052168;-62
2023/04/20 11:15:52;;;;;;;2.60;1.30;;;;;;;14.15;70.47;98558.67;80657;1297;3068705;-63
2023/04/20 11:18:18;;;;;;;3.60;1.10;;;;;;;14.12;71.07;98556.48;81878;1299;3013149;-62